sensor_id;sensor_type;location;lat;lon;timestamp;P1;durP1;ratioP1;P2;durP2;ratioP2
1276;SDS011;631;51.024;13.826;2022-10-26T00:02:13;11.30;;;9.47;;
1276;SDS011;631;51.024;13.826;2022-10-26T00:04:39;13.63;;;9.93;;
1276;SDS011;631;51.024;13.826;2022-10-26T00:07:05;11.77;;;9.73;;
1276;SDS011;631;51.024;13.826;2022-10-26T00:09:30;12.20;;;10.00;;
1276;SDS011;631;51.024;13.826;2022-10-26T00:11:56;11.10;;;9.90;;
1276;SDS011;631;51.024;13.826;2022-10-26T00:14:21;15.13;;;9.80;;
1276;SDS011;631;51.024;13.826;2022-10-26T00:16:47;12.47;;;9.53;;
1276;SDS011;631;51.024;13.826;2022-10-26T00:19:13;12.47;;;9.90;;
1276;SDS011;631;51.024;13.826;2022-10-26T00:21:38;12.10;;;9.60;;
1276;SDS011;631;51.024;13.826;2022-10-26T00:24:04;11.50;;;9.10;;
1276;SDS011;631;51.024;13.826;2022-10-26T00:26:30;18.30;;;10.03;;
1276;SDS011;631;51.024;13.826;2022-10-26T00:28:55;14.03;;;8.80;;
1276;SDS011;631;51.024;13.826;2022-10-26T00:31:22;15.80;;;9.70;;
1276;SDS011;631;51.024;13.826;2022-10-26T00:33:52;14.53;;;9.40;;
1276;SDS011;631;51.024;13.826;2022-10-26T00:36:19;14.10;;;10.87;;
1276;SDS011;631;51.024;13.826;2022-10-26T00:38:48;12.60;;;10.00;;
1276;SDS011;631;51.024;13.826;2022-10-26T00:41:16;13.67;;;10.20;;
1276;SDS011;631;51.024;13.826;2022-10-26T00:43:43;11.87;;;10.03;;
1276;SDS011;631;51.024;13.826;2022-10-26T00:46:11;12.53;;;9.70;;
1276;SDS011;631;51.024;13.826;2022-10-26T00:48:42;15.13;;;9.33;;
1276;SDS011;631;51.024;13.826;2022-10-26T00:51:16;14.23;;;8.90;;
1276;SDS011;631;51.024;13.826;2022-10-26T00:54:05;12.53;;;9.80;;
1276;SDS011;631;51.024;13.826;2022-10-26T00:56:35;14.87;;;9.93;;
1276;SDS011;631;51.024;13.826;2022-10-26T00:59:02;12.93;;;9.77;;
1276;SDS011;631;51.024;13.826;2022-10-26T01:01:31;12.93;;;9.53;;
1276;SDS011;631;51.024;13.826;2022-10-26T01:04:00;11.30;;;9.93;;
1276;SDS011;631;51.024;13.826;2022-10-26T01:06:27;13.37;;;9.83;;
1276;SDS011;631;51.024;13.826;2022-10-26T01:08:54;12.87;;;10.07;;
1276;SDS011;631;51.024;13.826;2022-10-26T01:11:19;14.93;;;11.00;;
1276;SDS011;631;51.024;13.826;2022-10-26T01:13:45;12.20;;;9.53;;
1276;SDS011;631;51.024;13.826;2022-10-26T01:16:24;12.90;;;9.90;;
1276;SDS011;631;51.024;13.826;2022-10-26T01:21:50;11.43;;;9.77;;
1276;SDS011;631;51.024;13.826;2022-10-26T01:24:45;12.77;;;10.33;;
1276;SDS011;631;51.024;13.826;2022-10-26T01:27:16;16.73;;;9.93;;
1276;SDS011;631;51.024;13.826;2022-10-26T01:30:11;13.97;;;10.00;;
1276;SDS011;631;51.024;13.826;2022-10-26T01:32:42;12.00;;;10.03;;
1276;SDS011;631;51.024;13.826;2022-10-26T01:38:01;10.30;;;9.20;;
1276;SDS011;631;51.024;13.826;2022-10-26T01:40:45;10.80;;;9.03;;
1276;SDS011;631;51.024;13.826;2022-10-26T01:43:18;15.60;;;9.90;;
1276;SDS011;631;51.024;13.826;2022-10-26T01:45:45;13.90;;;10.10;;
1276;SDS011;631;51.024;13.826;2022-10-26T01:48:13;11.00;;;9.80;;
1276;SDS011;631;51.024;13.826;2022-10-26T01:50:42;12.57;;;10.37;;
1276;SDS011;631;51.024;13.826;2022-10-26T01:53:12;13.63;;;10.87;;
1276;SDS011;631;51.024;13.826;2022-10-26T01:55:43;14.20;;;11.00;;
1276;SDS011;631;51.024;13.826;2022-10-26T02:03:51;13.23;;;10.50;;
1276;SDS011;631;51.024;13.826;2022-10-26T02:06:21;13.03;;;10.47;;
1276;SDS011;631;51.024;13.826;2022-10-26T02:17:15;13.23;;;10.40;;
1276;SDS011;631;51.024;13.826;2022-10-26T02:19:43;16.17;;;11.30;;
1276;SDS011;631;51.024;13.826;2022-10-26T02:22:28;15.23;;;11.30;;
1276;SDS011;631;51.024;13.826;2022-10-26T02:25:08;16.20;;;10.90;;
1276;SDS011;631;51.024;13.826;2022-10-26T02:27:45;15.70;;;10.87;;
1276;SDS011;631;51.024;13.826;2022-10-26T02:30:14;13.10;;;11.00;;
1276;SDS011;631;51.024;13.826;2022-10-26T02:32:41;14.00;;;10.47;;
1276;SDS011;631;51.024;13.826;2022-10-26T02:35:11;15.10;;;11.43;;
1276;SDS011;631;51.024;13.826;2022-10-26T02:37:39;13.00;;;10.80;;
1276;SDS011;631;51.024;13.826;2022-10-26T02:40:08;14.70;;;11.60;;
1276;SDS011;631;51.024;13.826;2022-10-26T02:42:39;17.43;;;12.03;;
1276;SDS011;631;51.024;13.826;2022-10-26T02:45:08;16.00;;;12.07;;
1276;SDS011;631;51.024;13.826;2022-10-26T02:47:38;14.10;;;11.43;;
1276;SDS011;631;51.024;13.826;2022-10-26T02:50:04;17.83;;;11.90;;
1276;SDS011;631;51.024;13.826;2022-10-26T02:52:36;15.57;;;11.43;;
1276;SDS011;631;51.024;13.826;2022-10-26T02:55:19;14.80;;;11.40;;
1276;SDS011;631;51.024;13.826;2022-10-26T02:57:53;15.60;;;11.37;;
1276;SDS011;631;51.024;13.826;2022-10-26T03:00:22;16.10;;;12.10;;
1276;SDS011;631;51.024;13.826;2022-10-26T03:02:52;18.07;;;12.27;;
1276;SDS011;631;51.024;13.826;2022-10-26T03:05:27;16.17;;;11.43;;
1276;SDS011;631;51.024;13.826;2022-10-26T03:07:54;13.97;;;11.70;;
1276;SDS011;631;51.024;13.826;2022-10-26T03:10:20;16.37;;;12.17;;
1276;SDS011;631;51.024;13.826;2022-10-26T03:12:46;16.20;;;12.00;;
1276;SDS011;631;51.024;13.826;2022-10-26T03:15:12;15.67;;;12.73;;
1276;SDS011;631;51.024;13.826;2022-10-26T03:17:39;17.53;;;12.23;;
1276;SDS011;631;51.024;13.826;2022-10-26T03:20:05;15.03;;;11.80;;
1276;SDS011;631;51.024;13.826;2022-10-26T03:22:31;17.20;;;11.50;;
1276;SDS011;631;51.024;13.826;2022-10-26T03:24:56;14.20;;;11.73;;
1276;SDS011;631;51.024;13.826;2022-10-26T03:27:22;17.57;;;12.47;;
1276;SDS011;631;51.024;13.826;2022-10-26T03:29:47;15.80;;;12.73;;
1276;SDS011;631;51.024;13.826;2022-10-26T03:32:13;15.53;;;11.93;;
1276;SDS011;631;51.024;13.826;2022-10-26T03:34:38;13.93;;;11.73;;
1276;SDS011;631;51.024;13.826;2022-10-26T03:37:04;16.50;;;12.53;;
1276;SDS011;631;51.024;13.826;2022-10-26T03:39:30;18.10;;;12.20;;
1276;SDS011;631;51.024;13.826;2022-10-26T03:41:55;12.47;;;11.17;;
1276;SDS011;631;51.024;13.826;2022-10-26T03:44:21;18.03;;;12.23;;
1276;SDS011;631;51.024;13.826;2022-10-26T03:46:46;14.37;;;12.80;;
1276;SDS011;631;51.024;13.826;2022-10-26T03:49:12;14.50;;;12.57;;
1276;SDS011;631;51.024;13.826;2022-10-26T03:51:38;14.83;;;11.90;;
1276;SDS011;631;51.024;13.826;2022-10-26T03:54:03;15.87;;;11.63;;
1276;SDS011;631;51.024;13.826;2022-10-26T03:56:29;15.30;;;12.50;;
1276;SDS011;631;51.024;13.826;2022-10-26T03:58:55;14.50;;;12.27;;
1276;SDS011;631;51.024;13.826;2022-10-26T04:01:20;14.97;;;11.63;;
1276;SDS011;631;51.024;13.826;2022-10-26T04:03:46;16.50;;;12.17;;
1276;SDS011;631;51.024;13.826;2022-10-26T04:06:12;14.40;;;11.87;;
1276;SDS011;631;51.024;13.826;2022-10-26T04:08:37;13.60;;;11.50;;
1276;SDS011;631;51.024;13.826;2022-10-26T04:11:03;13.60;;;11.90;;
1276;SDS011;631;51.024;13.826;2022-10-26T04:13:29;14.40;;;12.30;;
1276;SDS011;631;51.024;13.826;2022-10-26T04:15:54;18.27;;;13.73;;
1276;SDS011;631;51.024;13.826;2022-10-26T04:18:20;18.30;;;13.23;;
1276;SDS011;631;51.024;13.826;2022-10-26T04:20:45;20.33;;;13.40;;
1276;SDS011;631;51.024;13.826;2022-10-26T04:23:12;16.03;;;12.70;;
1276;SDS011;631;51.024;13.826;2022-10-26T04:25:39;15.27;;;13.07;;
1276;SDS011;631;51.024;13.826;2022-10-26T04:28:07;16.83;;;13.37;;
1276;SDS011;631;51.024;13.826;2022-10-26T04:30:34;20.40;;;13.57;;
1276;SDS011;631;51.024;13.826;2022-10-26T04:32:59;18.67;;;14.00;;
1276;SDS011;631;51.024;13.826;2022-10-26T04:35:25;20.37;;;13.27;;
1276;SDS011;631;51.024;13.826;2022-10-26T04:37:55;17.10;;;12.53;;
1276;SDS011;631;51.024;13.826;2022-10-26T04:40:22;19.13;;;11.83;;
1276;SDS011;631;51.024;13.826;2022-10-26T04:42:48;14.23;;;12.27;;
1276;SDS011;631;51.024;13.826;2022-10-26T04:45:14;15.30;;;13.30;;
1276;SDS011;631;51.024;13.826;2022-10-26T04:47:40;18.53;;;12.83;;
1276;SDS011;631;51.024;13.826;2022-10-26T04:50:06;19.67;;;12.87;;
1276;SDS011;631;51.024;13.826;2022-10-26T04:52:33;20.07;;;15.00;;
1276;SDS011;631;51.024;13.826;2022-10-26T04:54:59;23.87;;;15.30;;
1276;SDS011;631;51.024;13.826;2022-10-26T04:57:25;19.43;;;13.20;;
1276;SDS011;631;51.024;13.826;2022-10-26T04:59:50;17.57;;;13.10;;
1276;SDS011;631;51.024;13.826;2022-10-26T05:02:16;15.87;;;12.23;;
1276;SDS011;631;51.024;13.826;2022-10-26T05:04:42;19.37;;;13.37;;
1276;SDS011;631;51.024;13.826;2022-10-26T05:07:07;16.40;;;13.17;;
1276;SDS011;631;51.024;13.826;2022-10-26T05:09:33;16.73;;;12.80;;
1276;SDS011;631;51.024;13.826;2022-10-26T05:11:58;16.00;;;12.83;;
1276;SDS011;631;51.024;13.826;2022-10-26T05:14:24;16.50;;;12.67;;
1276;SDS011;631;51.024;13.826;2022-10-26T05:16:50;16.30;;;13.13;;
1276;SDS011;631;51.024;13.826;2022-10-26T05:19:15;16.23;;;12.40;;
1276;SDS011;631;51.024;13.826;2022-10-26T05:21:41;15.70;;;12.80;;
1276;SDS011;631;51.024;13.826;2022-10-26T05:24:06;17.40;;;12.63;;
1276;SDS011;631;51.024;13.826;2022-10-26T05:26:32;17.57;;;13.60;;
1276;SDS011;631;51.024;13.826;2022-10-26T05:28:58;16.63;;;13.60;;
1276;SDS011;631;51.024;13.826;2022-10-26T05:31:23;19.90;;;14.17;;
1276;SDS011;631;51.024;13.826;2022-10-26T05:33:49;19.57;;;15.10;;
1276;SDS011;631;51.024;13.826;2022-10-26T05:36:18;17.10;;;13.33;;
1276;SDS011;631;51.024;13.826;2022-10-26T05:38:43;18.70;;;13.77;;
1276;SDS011;631;51.024;13.826;2022-10-26T05:41:09;19.00;;;14.23;;
1276;SDS011;631;51.024;13.826;2022-10-26T05:43:35;21.47;;;14.63;;
1276;SDS011;631;51.024;13.826;2022-10-26T05:46:00;18.17;;;14.30;;
1276;SDS011;631;51.024;13.826;2022-10-26T05:48:26;18.97;;;14.73;;
1276;SDS011;631;51.024;13.826;2022-10-26T05:50:51;18.20;;;13.67;;
1276;SDS011;631;51.024;13.826;2022-10-26T05:53:17;19.10;;;14.30;;
1276;SDS011;631;51.024;13.826;2022-10-26T05:55:43;20.63;;;14.40;;
1276;SDS011;631;51.024;13.826;2022-10-26T05:58:12;19.37;;;13.83;;
1276;SDS011;631;51.024;13.826;2022-10-26T06:06:26;17.93;;;13.57;;
1276;SDS011;631;51.024;13.826;2022-10-26T06:08:57;18.87;;;14.90;;
1276;SDS011;631;51.024;13.826;2022-10-26T06:11:22;19.27;;;14.53;;
1276;SDS011;631;51.024;13.826;2022-10-26T06:13:48;21.37;;;15.97;;
1276;SDS011;631;51.024;13.826;2022-10-26T06:19:05;18.90;;;14.40;;
1276;SDS011;631;51.024;13.826;2022-10-26T06:22:10;21.60;;;16.50;;
1276;SDS011;631;51.024;13.826;2022-10-26T06:30:20;19.50;;;14.60;;
1276;SDS011;631;51.024;13.826;2022-10-26T06:32:47;22.27;;;15.00;;
1276;SDS011;631;51.024;13.826;2022-10-26T06:35:36;22.80;;;15.43;;
1276;SDS011;631;51.024;13.826;2022-10-26T06:38:15;17.77;;;14.60;;
1276;SDS011;631;51.024;13.826;2022-10-26T06:40:44;20.30;;;15.47;;
1276;SDS011;631;51.024;13.826;2022-10-26T06:43:22;21.17;;;14.97;;
1276;SDS011;631;51.024;13.826;2022-10-26T06:45:55;25.13;;;15.17;;
1276;SDS011;631;51.024;13.826;2022-10-26T06:48:29;19.40;;;14.60;;
1276;SDS011;631;51.024;13.826;2022-10-26T06:51:01;18.67;;;14.90;;
1276;SDS011;631;51.024;13.826;2022-10-26T06:53:32;20.73;;;15.90;;
1276;SDS011;631;51.024;13.826;2022-10-26T06:56:02;21.37;;;16.37;;
1276;SDS011;631;51.024;13.826;2022-10-26T06:58:32;19.37;;;15.80;;
1276;SDS011;631;51.024;13.826;2022-10-26T07:01:00;18.60;;;15.77;;
1276;SDS011;631;51.024;13.826;2022-10-26T07:03:26;21.47;;;15.70;;
1276;SDS011;631;51.024;13.826;2022-10-26T07:05:51;21.07;;;15.60;;
1276;SDS011;631;51.024;13.826;2022-10-26T07:08:17;21.10;;;15.77;;
1276;SDS011;631;51.024;13.826;2022-10-26T07:10:43;18.50;;;15.10;;
1276;SDS011;631;51.024;13.826;2022-10-26T07:13:08;18.77;;;14.70;;
1276;SDS011;631;51.024;13.826;2022-10-26T07:15:35;20.30;;;15.00;;
1276;SDS011;631;51.024;13.826;2022-10-26T07:18:02;22.00;;;15.63;;
1276;SDS011;631;51.024;13.826;2022-10-26T07:20:30;20.97;;;15.27;;
1276;SDS011;631;51.024;13.826;2022-10-26T07:22:56;20.70;;;15.57;;
1276;SDS011;631;51.024;13.826;2022-10-26T07:25:23;19.60;;;14.83;;
1276;SDS011;631;51.024;13.826;2022-10-26T07:27:50;19.17;;;15.10;;
1276;SDS011;631;51.024;13.826;2022-10-26T07:30:16;19.00;;;13.50;;
1276;SDS011;631;51.024;13.826;2022-10-26T07:32:41;19.90;;;14.77;;
1276;SDS011;631;51.024;13.826;2022-10-26T07:35:07;21.70;;;14.60;;
1276;SDS011;631;51.024;13.826;2022-10-26T07:37:33;16.13;;;14.00;;
1276;SDS011;631;51.024;13.826;2022-10-26T07:39:58;17.70;;;14.70;;
1276;SDS011;631;51.024;13.826;2022-10-26T07:42:24;20.17;;;15.53;;
1276;SDS011;631;51.024;13.826;2022-10-26T07:44:49;19.07;;;13.93;;
1276;SDS011;631;51.024;13.826;2022-10-26T07:47:15;18.33;;;12.20;;
1276;SDS011;631;51.024;13.826;2022-10-26T07:49:41;15.83;;;13.20;;
1276;SDS011;631;51.024;13.826;2022-10-26T07:52:08;13.50;;;11.80;;
1276;SDS011;631;51.024;13.826;2022-10-26T07:54:33;14.23;;;11.13;;
1276;SDS011;631;51.024;13.826;2022-10-26T07:56:59;11.53;;;10.00;;
1276;SDS011;631;51.024;13.826;2022-10-26T07:59:25;13.33;;;9.70;;
1276;SDS011;631;51.024;13.826;2022-10-26T08:01:50;10.03;;;8.80;;
1276;SDS011;631;51.024;13.826;2022-10-26T08:04:16;10.63;;;9.53;;
1276;SDS011;631;51.024;13.826;2022-10-26T08:06:42;11.30;;;9.90;;
1276;SDS011;631;51.024;13.826;2022-10-26T08:09:08;12.53;;;10.50;;
1276;SDS011;631;51.024;13.826;2022-10-26T08:11:33;10.43;;;9.33;;
1276;SDS011;631;51.024;13.826;2022-10-26T08:14:01;10.70;;;9.60;;
1276;SDS011;631;51.024;13.826;2022-10-26T08:16:27;11.20;;;9.40;;
1276;SDS011;631;51.024;13.826;2022-10-26T08:18:52;11.83;;;9.10;;
1276;SDS011;631;51.024;13.826;2022-10-26T08:21:18;10.80;;;9.70;;
1276;SDS011;631;51.024;13.826;2022-10-26T08:23:43;10.70;;;9.23;;
1276;SDS011;631;51.024;13.826;2022-10-26T08:26:09;10.17;;;9.17;;
1276;SDS011;631;51.024;13.826;2022-10-26T08:28:38;9.90;;;8.87;;
1276;SDS011;631;51.024;13.826;2022-10-26T08:31:04;8.93;;;8.03;;
1276;SDS011;631;51.024;13.826;2022-10-26T08:33:30;9.20;;;8.30;;
1276;SDS011;631;51.024;13.826;2022-10-26T08:35:57;9.43;;;8.43;;
1276;SDS011;631;51.024;13.826;2022-10-26T08:38:23;13.43;;;7.87;;
1276;SDS011;631;51.024;13.826;2022-10-26T08:40:49;10.60;;;7.73;;
1276;SDS011;631;51.024;13.826;2022-10-26T08:46:04;9.30;;;8.40;;
1276;SDS011;631;51.024;13.826;2022-10-26T08:48:36;8.87;;;7.97;;
1276;SDS011;631;51.024;13.826;2022-10-26T08:51:09;11.77;;;8.10;;
1276;SDS011;631;51.024;13.826;2022-10-26T08:53:56;9.13;;;8.17;;
1276;SDS011;631;51.024;13.826;2022-10-26T08:58:57;9.13;;;8.10;;
1276;SDS011;631;51.024;13.826;2022-10-26T09:01:30;8.30;;;7.50;;
1276;SDS011;631;51.024;13.826;2022-10-26T09:03:56;8.57;;;7.80;;
1276;SDS011;631;51.024;13.826;2022-10-26T09:06:30;9.03;;;7.93;;
1276;SDS011;631;51.024;13.826;2022-10-26T09:09:14;8.83;;;7.97;;
1276;SDS011;631;51.024;13.826;2022-10-26T09:14:32;8.67;;;7.80;;
1276;SDS011;631;51.024;13.826;2022-10-26T09:19:42;8.50;;;7.70;;
1276;SDS011;631;51.024;13.826;2022-10-26T09:22:30;9.20;;;8.40;;
1276;SDS011;631;51.024;13.826;2022-10-26T09:25:05;8.90;;;8.10;;
1276;SDS011;631;51.024;13.826;2022-10-26T09:27:43;8.20;;;7.50;;
1276;SDS011;631;51.024;13.826;2022-10-26T09:30:30;8.53;;;7.83;;
1276;SDS011;631;51.024;13.826;2022-10-26T09:32:58;8.67;;;7.87;;
1276;SDS011;631;51.024;13.826;2022-10-26T09:35:27;8.70;;;8.00;;
1276;SDS011;631;51.024;13.826;2022-10-26T09:41:37;9.80;;;9.00;;
1276;SDS011;631;51.024;13.826;2022-10-26T09:43:45;9.17;;;8.37;;
1276;SDS011;631;51.024;13.826;2022-10-26T09:46:20;8.93;;;8.13;;
1276;SDS011;631;51.024;13.826;2022-10-26T09:48:59;10.00;;;9.10;;
1276;SDS011;631;51.024;13.826;2022-10-26T09:51:29;8.57;;;7.77;;
1276;SDS011;631;51.024;13.826;2022-10-26T09:53:57;9.20;;;8.40;;
1276;SDS011;631;51.024;13.826;2022-10-26T09:56:24;9.00;;;8.20;;
1276;SDS011;631;51.024;13.826;2022-10-26T09:58:53;9.80;;;8.90;;
1276;SDS011;631;51.024;13.826;2022-10-26T10:06:40;8.80;;;8.10;;
1276;SDS011;631;51.024;13.826;2022-10-26T10:14:27;9.07;;;8.30;;
1276;SDS011;631;51.024;13.826;2022-10-26T10:17:19;8.50;;;7.70;;
1276;SDS011;631;51.024;13.826;2022-10-26T10:19:47;8.13;;;7.43;;
1276;SDS011;631;51.024;13.826;2022-10-26T10:24:40;7.20;;;6.70;;
1276;SDS011;631;51.024;13.826;2022-10-26T10:29:40;7.53;;;6.93;;
1276;SDS011;631;51.024;13.826;2022-10-26T10:32:14;7.00;;;6.40;;
1276;SDS011;631;51.024;13.826;2022-10-26T10:34:45;7.00;;;6.30;;
1276;SDS011;631;51.024;13.826;2022-10-26T10:37:18;7.43;;;6.77;;
1276;SDS011;631;51.024;13.826;2022-10-26T10:40:02;7.17;;;6.37;;
1276;SDS011;631;51.024;13.826;2022-10-26T10:42:39;7.23;;;6.60;;
1276;SDS011;631;51.024;13.826;2022-10-26T10:45:17;6.60;;;6.10;;
1276;SDS011;631;51.024;13.826;2022-10-26T10:47:43;6.13;;;5.67;;
1276;SDS011;631;51.024;13.826;2022-10-26T10:51:00;5.63;;;5.23;;
1276;SDS011;631;51.024;13.826;2022-10-26T10:53:37;6.50;;;5.97;;
1276;SDS011;631;51.024;13.826;2022-10-26T10:56:17;6.20;;;5.70;;
1276;SDS011;631;51.024;13.826;2022-10-26T10:58:59;6.93;;;6.33;;
1276;SDS011;631;51.024;13.826;2022-10-26T11:01:39;6.03;;;5.63;;
1276;SDS011;631;51.024;13.826;2022-10-26T11:07:03;5.33;;;5.00;;
1276;SDS011;631;51.024;13.826;2022-10-26T11:09:32;5.53;;;4.90;;
1276;SDS011;631;51.024;13.826;2022-10-26T11:12:02;5.10;;;4.53;;
1276;SDS011;631;51.024;13.826;2022-10-26T11:14:40;4.70;;;4.40;;
1276;SDS011;631;51.024;13.826;2022-10-26T11:17:21;4.60;;;4.27;;
1276;SDS011;631;51.024;13.826;2022-10-26T11:22:28;4.43;;;4.13;;
1276;SDS011;631;51.024;13.826;2022-10-26T11:24:59;4.50;;;4.20;;
1276;SDS011;631;51.024;13.826;2022-10-26T11:27:40;5.00;;;4.30;;
1276;SDS011;631;51.024;13.826;2022-10-26T11:30:17;4.70;;;4.30;;
1276;SDS011;631;51.024;13.826;2022-10-26T11:32:58;4.10;;;3.80;;
1276;SDS011;631;51.024;13.826;2022-10-26T11:44:19;4.90;;;4.50;;
1276;SDS011;631;51.024;13.826;2022-10-26T11:47:06;5.40;;;5.00;;
1276;SDS011;631;51.024;13.826;2022-10-26T11:49:45;5.10;;;4.70;;
1276;SDS011;631;51.024;13.826;2022-10-26T11:52:27;5.77;;;5.27;;
1276;SDS011;631;51.024;13.826;2022-10-26T11:55:00;5.43;;;5.13;;
1276;SDS011;631;51.024;13.826;2022-10-26T11:57:29;5.80;;;5.30;;
1276;SDS011;631;51.024;13.826;2022-10-26T12:00:05;4.90;;;4.60;;
1276;SDS011;631;51.024;13.826;2022-10-26T12:02:38;5.73;;;5.33;;
1276;SDS011;631;51.024;13.826;2022-10-26T12:07:40;5.70;;;4.37;;
1276;SDS011;631;51.024;13.826;2022-10-26T12:10:31;5.33;;;4.83;;
1276;SDS011;631;51.024;13.826;2022-10-26T12:15:58;6.30;;;5.03;;
1276;SDS011;631;51.024;13.826;2022-10-26T12:18:40;5.67;;;5.27;;
1276;SDS011;631;51.024;13.826;2022-10-26T12:21:13;6.47;;;5.00;;
1276;SDS011;631;51.024;13.826;2022-10-26T12:23:56;5.57;;;5.27;;
1276;SDS011;631;51.024;13.826;2022-10-26T12:33:57;5.10;;;4.70;;
1276;SDS011;631;51.024;13.826;2022-10-26T12:39:28;4.90;;;4.37;;
1276;SDS011;631;51.024;13.826;2022-10-26T12:49:57;5.53;;;5.23;;
1276;SDS011;631;51.024;13.826;2022-10-26T12:52:27;5.07;;;4.67;;
1276;SDS011;631;51.024;13.826;2022-10-26T13:00:31;5.67;;;5.00;;
1276;SDS011;631;51.024;13.826;2022-10-26T13:08:45;5.90;;;5.40;;
1276;SDS011;631;51.024;13.826;2022-10-26T13:11:25;5.33;;;4.87;;
1276;SDS011;631;51.024;13.826;2022-10-26T13:14:02;5.97;;;5.37;;
1276;SDS011;631;51.024;13.826;2022-10-26T13:16:30;6.30;;;5.80;;
1276;SDS011;631;51.024;13.826;2022-10-26T13:18:56;6.30;;;5.80;;
1276;SDS011;631;51.024;13.826;2022-10-26T13:21:23;9.87;;;5.80;;
1276;SDS011;631;51.024;13.826;2022-10-26T13:26:20;6.20;;;5.70;;
1276;SDS011;631;51.024;13.826;2022-10-26T13:33:59;7.67;;;7.17;;
1276;SDS011;631;51.024;13.826;2022-10-26T13:36:28;7.77;;;7.17;;
1276;SDS011;631;51.024;13.826;2022-10-26T13:39:12;6.70;;;6.20;;
1276;SDS011;631;51.024;13.826;2022-10-26T13:41:51;7.30;;;6.70;;
1276;SDS011;631;51.024;13.826;2022-10-26T13:44:22;6.97;;;6.47;;
1276;SDS011;631;51.024;13.826;2022-10-26T13:46:58;7.13;;;6.50;;
1276;SDS011;631;51.024;13.826;2022-10-26T13:49:29;7.20;;;6.60;;
1276;SDS011;631;51.024;13.826;2022-10-26T13:51:59;8.10;;;6.70;;
1276;SDS011;631;51.024;13.826;2022-10-26T13:54:29;6.53;;;6.03;;
1276;SDS011;631;51.024;13.826;2022-10-26T13:59:25;7.77;;;7.13;;
1276;SDS011;631;51.024;13.826;2022-10-26T14:04:32;6.93;;;6.50;;
1276;SDS011;631;51.024;13.826;2022-10-26T14:06:57;7.20;;;6.60;;
1276;SDS011;631;51.024;13.826;2022-10-26T14:09:23;7.10;;;6.60;;
1276;SDS011;631;51.024;13.826;2022-10-26T14:11:52;7.17;;;6.57;;
1276;SDS011;631;51.024;13.826;2022-10-26T14:14:19;7.00;;;6.50;;
1276;SDS011;631;51.024;13.826;2022-10-26T14:16:57;6.50;;;6.10;;
1276;SDS011;631;51.024;13.826;2022-10-26T14:19:36;6.60;;;6.20;;
1276;SDS011;631;51.024;13.826;2022-10-26T14:22:03;6.23;;;5.83;;
1276;SDS011;631;51.024;13.826;2022-10-26T14:24:33;8.83;;;8.17;;
1276;SDS011;631;51.024;13.826;2022-10-26T14:27:13;6.77;;;6.37;;
1276;SDS011;631;51.024;13.826;2022-10-26T14:29:42;7.10;;;6.60;;
1276;SDS011;631;51.024;13.826;2022-10-26T14:32:19;6.73;;;6.27;;
1276;SDS011;631;51.024;13.826;2022-10-26T14:34:45;7.87;;;7.27;;
1276;SDS011;631;51.024;13.826;2022-10-26T14:37:10;7.93;;;7.33;;
1276;SDS011;631;51.024;13.826;2022-10-26T14:39:47;8.60;;;7.90;;
1276;SDS011;631;51.024;13.826;2022-10-26T14:42:29;8.40;;;7.53;;
1276;SDS011;631;51.024;13.826;2022-10-26T14:44:57;8.83;;;8.07;;
1276;SDS011;631;51.024;13.826;2022-10-26T14:47:24;8.60;;;8.00;;
1276;SDS011;631;51.024;13.826;2022-10-26T14:49:55;7.80;;;7.30;;
1276;SDS011;631;51.024;13.826;2022-10-26T14:52:23;8.07;;;7.37;;
1276;SDS011;631;51.024;13.826;2022-10-26T14:54:59;8.40;;;7.80;;
1276;SDS011;631;51.024;13.826;2022-10-26T14:57:31;6.90;;;6.30;;
1276;SDS011;631;51.024;13.826;2022-10-26T15:00:15;7.37;;;6.83;;
1276;SDS011;631;51.024;13.826;2022-10-26T15:02:41;9.50;;;6.43;;
1276;SDS011;631;51.024;13.826;2022-10-26T15:07:53;8.17;;;7.57;;
1276;SDS011;631;51.024;13.826;2022-10-26T15:15:50;8.23;;;7.53;;
1276;SDS011;631;51.024;13.826;2022-10-26T15:18:21;8.67;;;7.87;;
1276;SDS011;631;51.024;13.826;2022-10-26T15:20:50;9.13;;;8.43;;
1276;SDS011;631;51.024;13.826;2022-10-26T15:23:17;11.50;;;8.23;;
1276;SDS011;631;51.024;13.826;2022-10-26T15:31:02;8.50;;;7.60;;
1276;SDS011;631;51.024;13.826;2022-10-26T15:33:29;8.40;;;7.60;;
1276;SDS011;631;51.024;13.826;2022-10-26T15:36:30;9.80;;;9.00;;
1276;SDS011;631;51.024;13.826;2022-10-26T15:38:48;9.20;;;8.30;;
1276;SDS011;631;51.024;13.826;2022-10-26T15:41:18;8.83;;;8.03;;
1276;SDS011;631;51.024;13.826;2022-10-26T15:43:49;11.90;;;8.23;;
1276;SDS011;631;51.024;13.826;2022-10-26T15:46:17;10.00;;;9.10;;
1276;SDS011;631;51.024;13.826;2022-10-26T15:48:43;10.80;;;9.70;;
1276;SDS011;631;51.024;13.826;2022-10-26T15:51:13;10.27;;;9.20;;
1276;SDS011;631;51.024;13.826;2022-10-26T15:53:39;9.90;;;8.97;;
1276;SDS011;631;51.024;13.826;2022-10-26T15:56:09;9.87;;;8.20;;
1276;SDS011;631;51.024;13.826;2022-10-26T15:58:39;10.90;;;8.83;;
1276;SDS011;631;51.024;13.826;2022-10-26T16:01:05;9.70;;;8.70;;
1276;SDS011;631;51.024;13.826;2022-10-26T16:03:30;10.23;;;9.33;;
1276;SDS011;631;51.024;13.826;2022-10-26T16:06:00;11.80;;;10.67;;
1276;SDS011;631;51.024;13.826;2022-10-26T16:08:27;10.90;;;9.77;;
1276;SDS011;631;51.024;13.826;2022-10-26T16:10:54;12.30;;;9.43;;
1276;SDS011;631;51.024;13.826;2022-10-26T16:13:19;12.87;;;10.00;;
1276;SDS011;631;51.024;13.826;2022-10-26T16:15:45;11.97;;;10.80;;
1276;SDS011;631;51.024;13.826;2022-10-26T16:18:11;10.47;;;9.47;;
1276;SDS011;631;51.024;13.826;2022-10-26T16:20:37;14.30;;;10.70;;
1276;SDS011;631;51.024;13.826;2022-10-26T16:23:03;11.47;;;10.33;;
1276;SDS011;631;51.024;13.826;2022-10-26T16:25:39;10.53;;;9.43;;
1276;SDS011;631;51.024;13.826;2022-10-26T16:28:07;10.87;;;9.80;;
1276;SDS011;631;51.024;13.826;2022-10-26T16:30:35;12.20;;;10.70;;
1276;SDS011;631;51.024;13.826;2022-10-26T16:33:00;10.53;;;9.53;;
1276;SDS011;631;51.024;13.826;2022-10-26T16:35:26;10.83;;;9.73;;
1276;SDS011;631;51.024;13.826;2022-10-26T16:37:52;11.17;;;10.10;;
1276;SDS011;631;51.024;13.826;2022-10-26T16:40:17;12.97;;;10.60;;
1276;SDS011;631;51.024;13.826;2022-10-26T16:42:43;12.70;;;10.50;;
1276;SDS011;631;51.024;13.826;2022-10-26T16:45:09;12.97;;;10.83;;
1276;SDS011;631;51.024;13.826;2022-10-26T16:47:36;11.03;;;9.90;;
1276;SDS011;631;51.024;13.826;2022-10-26T16:50:03;12.30;;;10.20;;
1276;SDS011;631;51.024;13.826;2022-10-26T16:52:33;12.30;;;9.87;;
1276;SDS011;631;51.024;13.826;2022-10-26T16:55:00;10.27;;;9.27;;
1276;SDS011;631;51.024;13.826;2022-10-26T16:57:25;11.40;;;9.87;;
1276;SDS011;631;51.024;13.826;2022-10-26T16:59:51;10.43;;;9.33;;
1276;SDS011;631;51.024;13.826;2022-10-26T17:02:17;11.70;;;10.60;;
1276;SDS011;631;51.024;13.826;2022-10-26T17:04:42;12.23;;;9.63;;
1276;SDS011;631;51.024;13.826;2022-10-26T17:07:09;10.63;;;9.60;;
1276;SDS011;631;51.024;13.826;2022-10-26T17:09:34;11.33;;;10.03;;
1276;SDS011;631;51.024;13.826;2022-10-26T17:12:00;12.67;;;10.57;;
1276;SDS011;631;51.024;13.826;2022-10-26T17:14:26;12.73;;;10.70;;
1276;SDS011;631;51.024;13.826;2022-10-26T17:16:51;14.07;;;10.57;;
1276;SDS011;631;51.024;13.826;2022-10-26T17:19:17;14.03;;;10.37;;
1276;SDS011;631;51.024;13.826;2022-10-26T17:21:42;11.33;;;10.10;;
1276;SDS011;631;51.024;13.826;2022-10-26T17:24:08;11.30;;;10.10;;
1276;SDS011;631;51.024;13.826;2022-10-26T17:26:35;12.13;;;10.57;;
1276;SDS011;631;51.024;13.826;2022-10-26T17:29:00;10.63;;;9.47;;
1276;SDS011;631;51.024;13.826;2022-10-26T17:31:26;11.77;;;9.57;;
1276;SDS011;631;51.024;13.826;2022-10-26T17:33:52;11.37;;;10.00;;
1276;SDS011;631;51.024;13.826;2022-10-26T17:36:25;12.90;;;10.83;;